sensor_id;sensor_type;location;lat;lon;timestamp;P1;durP1;ratioP1;P2;durP2;ratioP2
4529;SDS011;2277;51.626;7.516;2024-01-16T00:00:45;10.27;;;8.73;;
4529;SDS011;2277;51.626;7.516;2024-01-16T00:03:11;16.83;;;9.93;;
4529;SDS011;2277;51.626;7.516;2024-01-16T00:05:37;9.30;;;7.53;;
4529;SDS011;2277;51.626;7.516;2024-01-16T00:08:03;11.67;;;10.47;;
4529;SDS011;2277;51.626;7.516;2024-01-16T00:10:28;13.33;;;7.40;;
4529;SDS011;2277;51.626;7.516;2024-01-16T00:12:54;17.00;;;8.10;;
4529;SDS011;2277;51.626;7.516;2024-01-16T00:15:20;12.27;;;7.00;;
4529;SDS011;2277;51.626;7.516;2024-01-16T00:17:45;24.00;;;12.40;;
4529;SDS011;2277;51.626;7.516;2024-01-16T00:20:11;7.50;;;5.83;;
4529;SDS011;2277;51.626;7.516;2024-01-16T00:22:37;9.53;;;7.50;;
4529;SDS011;2277;51.626;7.516;2024-01-16T00:25:02;10.33;;;8.07;;
4529;SDS011;2277;51.626;7.516;2024-01-16T00:27:28;11.43;;;7.50;;
4529;SDS011;2277;51.626;7.516;2024-01-16T00:29:54;9.73;;;7.37;;
4529;SDS011;2277;51.626;7.516;2024-01-16T00:32:19;6.77;;;6.07;;
4529;SDS011;2277;51.626;7.516;2024-01-16T00:34:45;15.93;;;9.20;;
4529;SDS011;2277;51.626;7.516;2024-01-16T00:37:10;8.87;;;7.83;;
4529;SDS011;2277;51.626;7.516;2024-01-16T00:39:36;15.47;;;9.60;;
4529;SDS011;2277;51.626;7.516;2024-01-16T00:42:02;23.60;;;11.37;;
4529;SDS011;2277;51.626;7.516;2024-01-16T00:44:28;16.03;;;9.83;;
4529;SDS011;2277;51.626;7.516;2024-01-16T00:46:53;8.73;;;7.67;;
4529;SDS011;2277;51.626;7.516;2024-01-16T00:49:19;9.23;;;5.63;;
4529;SDS011;2277;51.626;7.516;2024-01-16T00:51:45;10.47;;;7.80;;
4529;SDS011;2277;51.626;7.516;2024-01-16T00:54:10;17.10;;;11.00;;
4529;SDS011;2277;51.626;7.516;2024-01-16T00:56:36;13.67;;;8.20;;
4529;SDS011;2277;51.626;7.516;2024-01-16T00:59:02;8.40;;;5.63;;
4529;SDS011;2277;51.626;7.516;2024-01-16T01:01:28;8.57;;;6.77;;
4529;SDS011;2277;51.626;7.516;2024-01-16T01:03:53;8.53;;;6.27;;
4529;SDS011;2277;51.626;7.516;2024-01-16T01:06:20;12.40;;;6.67;;
4529;SDS011;2277;51.626;7.516;2024-01-16T01:08:46;13.03;;;8.03;;
4529;SDS011;2277;51.626;7.516;2024-01-16T01:11:12;12.83;;;7.27;;
4529;SDS011;2277;51.626;7.516;2024-01-16T01:13:37;13.23;;;6.53;;
4529;SDS011;2277;51.626;7.516;2024-01-16T01:16:03;9.03;;;8.10;;
4529;SDS011;2277;51.626;7.516;2024-01-16T01:18:29;13.37;;;6.90;;
4529;SDS011;2277;51.626;7.516;2024-01-16T01:20:54;8.83;;;7.57;;
4529;SDS011;2277;51.626;7.516;2024-01-16T01:23:21;7.33;;;6.23;;
4529;SDS011;2277;51.626;7.516;2024-01-16T01:25:46;9.67;;;6.93;;
4529;SDS011;2277;51.626;7.516;2024-01-16T01:28:12;14.13;;;9.53;;
4529;SDS011;2277;51.626;7.516;2024-01-16T01:30:37;11.67;;;7.23;;
4529;SDS011;2277;51.626;7.516;2024-01-16T01:33:03;13.70;;;7.27;;
4529;SDS011;2277;51.626;7.516;2024-01-16T01:35:29;29.33;;;9.20;;
4529;SDS011;2277;51.626;7.516;2024-01-16T01:37:55;13.50;;;8.30;;
4529;SDS011;2277;51.626;7.516;2024-01-16T01:40:21;16.37;;;10.17;;
4529;SDS011;2277;51.626;7.516;2024-01-16T01:42:46;14.67;;;6.93;;
4529;SDS011;2277;51.626;7.516;2024-01-16T01:45:12;9.27;;;5.90;;
4529;SDS011;2277;51.626;7.516;2024-01-16T01:47:38;9.13;;;7.67;;
4529;SDS011;2277;51.626;7.516;2024-01-16T01:50:05;13.20;;;7.33;;
4529;SDS011;2277;51.626;7.516;2024-01-16T01:52:33;10.60;;;8.07;;
4529;SDS011;2277;51.626;7.516;2024-01-16T01:54:58;13.40;;;10.03;;
4529;SDS011;2277;51.626;7.516;2024-01-16T01:57:25;15.20;;;8.40;;
4529;SDS011;2277;51.626;7.516;2024-01-16T01:59:51;16.23;;;8.60;;
4529;SDS011;2277;51.626;7.516;2024-01-16T02:02:17;10.00;;;8.03;;
4529;SDS011;2277;51.626;7.516;2024-01-16T02:04:43;10.27;;;8.30;;
4529;SDS011;2277;51.626;7.516;2024-01-16T02:07:11;10.03;;;7.27;;
4529;SDS011;2277;51.626;7.516;2024-01-16T02:09:37;10.57;;;6.33;;
4529;SDS011;2277;51.626;7.516;2024-01-16T02:12:04;10.90;;;6.57;;
4529;SDS011;2277;51.626;7.516;2024-01-16T02:14:30;10.67;;;7.60;;
4529;SDS011;2277;51.626;7.516;2024-01-16T02:16:56;10.60;;;7.23;;
4529;SDS011;2277;51.626;7.516;2024-01-16T02:19:21;14.03;;;9.63;;
4529;SDS011;2277;51.626;7.516;2024-01-16T02:21:48;12.30;;;8.63;;
4529;SDS011;2277;51.626;7.516;2024-01-16T02:24:14;10.93;;;7.77;;
4529;SDS011;2277;51.626;7.516;2024-01-16T02:26:41;9.17;;;7.63;;
4529;SDS011;2277;51.626;7.516;2024-01-16T02:29:07;22.37;;;11.00;;
4529;SDS011;2277;51.626;7.516;2024-01-16T02:31:33;10.70;;;8.87;;
4529;SDS011;2277;51.626;7.516;2024-01-16T02:33:59;8.60;;;6.90;;
4529;SDS011;2277;51.626;7.516;2024-01-16T02:36:25;12.10;;;7.60;;
4529;SDS011;2277;51.626;7.516;2024-01-16T02:38:51;25.80;;;9.30;;
4529;SDS011;2277;51.626;7.516;2024-01-16T02:41:17;12.73;;;7.83;;
4529;SDS011;2277;51.626;7.516;2024-01-16T02:43:43;15.33;;;9.37;;
4529;SDS011;2277;51.626;7.516;2024-01-16T02:46:09;8.37;;;6.00;;
4529;SDS011;2277;51.626;7.516;2024-01-16T02:48:35;9.73;;;8.37;;
4529;SDS011;2277;51.626;7.516;2024-01-16T02:51:01;8.60;;;7.80;;
4529;SDS011;2277;51.626;7.516;2024-01-16T02:53:27;6.60;;;5.53;;
4529;SDS011;2277;51.626;7.516;2024-01-16T02:55:53;18.23;;;9.73;;
4529;SDS011;2277;51.626;7.516;2024-01-16T02:58:19;9.87;;;5.63;;
4529;SDS011;2277;51.626;7.516;2024-01-16T03:00:46;15.70;;;7.27;;
4529;SDS011;2277;51.626;7.516;2024-01-16T03:03:12;7.00;;;5.57;;
4529;SDS011;2277;51.626;7.516;2024-01-16T03:05:37;9.47;;;6.03;;
4529;SDS011;2277;51.626;7.516;2024-01-16T03:08:03;10.50;;;7.70;;
4529;SDS011;2277;51.626;7.516;2024-01-16T03:10:30;10.10;;;5.80;;
4529;SDS011;2277;51.626;7.516;2024-01-16T03:12:55;15.40;;;7.97;;
4529;SDS011;2277;51.626;7.516;2024-01-16T03:15:22;10.83;;;9.07;;
4529;SDS011;2277;51.626;7.516;2024-01-16T03:17:47;15.73;;;8.97;;
4529;SDS011;2277;51.626;7.516;2024-01-16T03:20:14;11.07;;;6.60;;
4529;SDS011;2277;51.626;7.516;2024-01-16T03:22:40;18.53;;;7.50;;
4529;SDS011;2277;51.626;7.516;2024-01-16T03:25:07;6.40;;;5.80;;
4529;SDS011;2277;51.626;7.516;2024-01-16T03:27:33;8.90;;;6.27;;
4529;SDS011;2277;51.626;7.516;2024-01-16T03:29:59;13.13;;;7.87;;
4529;SDS011;2277;51.626;7.516;2024-01-16T03:32:26;9.30;;;8.40;;
4529;SDS011;2277;51.626;7.516;2024-01-16T03:34:52;14.83;;;7.77;;
4529;SDS011;2277;51.626;7.516;2024-01-16T03:37:17;12.17;;;6.83;;
4529;SDS011;2277;51.626;7.516;2024-01-16T03:39:43;13.73;;;8.43;;
4529;SDS011;2277;51.626;7.516;2024-01-16T03:42:09;10.37;;;6.53;;
4529;SDS011;2277;51.626;7.516;2024-01-16T03:44:40;23.47;;;8.00;;
4529;SDS011;2277;51.626;7.516;2024-01-16T03:47:05;11.53;;;6.97;;
4529;SDS011;2277;51.626;7.516;2024-01-16T03:49:32;15.93;;;8.03;;
4529;SDS011;2277;51.626;7.516;2024-01-16T03:51:58;10.17;;;7.93;;
4529;SDS011;2277;51.626;7.516;2024-01-16T03:54:23;9.97;;;7.10;;
4529;SDS011;2277;51.626;7.516;2024-01-16T03:56:50;10.07;;;9.03;;
4529;SDS011;2277;51.626;7.516;2024-01-16T03:59:16;12.70;;;7.47;;
4529;SDS011;2277;51.626;7.516;2024-01-16T04:01:41;16.77;;;6.27;;
4529;SDS011;2277;51.626;7.516;2024-01-16T04:04:09;11.83;;;9.67;;
4529;SDS011;2277;51.626;7.516;2024-01-16T04:06:35;13.27;;;8.50;;
4529;SDS011;2277;51.626;7.516;2024-01-16T04:09:01;14.07;;;11.43;;
4529;SDS011;2277;51.626;7.516;2024-01-16T04:11:28;13.97;;;9.70;;
4529;SDS011;2277;51.626;7.516;2024-01-16T04:13:53;10.83;;;8.37;;
4529;SDS011;2277;51.626;7.516;2024-01-16T04:16:19;10.40;;;8.60;;
4529;SDS011;2277;51.626;7.516;2024-01-16T04:18:45;12.03;;;7.30;;
4529;SDS011;2277;51.626;7.516;2024-01-16T04:21:10;16.63;;;11.50;;
4529;SDS011;2277;51.626;7.516;2024-01-16T04:23:36;17.00;;;9.50;;
4529;SDS011;2277;51.626;7.516;2024-01-16T04:26:02;12.33;;;8.60;;
4529;SDS011;2277;51.626;7.516;2024-01-16T04:28:28;10.60;;;8.50;;
4529;SDS011;2277;51.626;7.516;2024-01-16T04:30:53;19.97;;;9.10;;
4529;SDS011;2277;51.626;7.516;2024-01-16T04:33:19;21.40;;;9.50;;
4529;SDS011;2277;51.626;7.516;2024-01-16T04:35:45;12.60;;;10.23;;
4529;SDS011;2277;51.626;7.516;2024-01-16T04:38:10;11.63;;;8.80;;
4529;SDS011;2277;51.626;7.516;2024-01-16T04:40:36;14.00;;;9.50;;
4529;SDS011;2277;51.626;7.516;2024-01-16T04:43:02;20.23;;;10.23;;
4529;SDS011;2277;51.626;7.516;2024-01-16T04:45:28;17.40;;;9.87;;
4529;SDS011;2277;51.626;7.516;2024-01-16T04:47:53;14.63;;;8.63;;
4529;SDS011;2277;51.626;7.516;2024-01-16T04:50:19;12.43;;;8.10;;
4529;SDS011;2277;51.626;7.516;2024-01-16T04:52:44;14.80;;;9.90;;
4529;SDS011;2277;51.626;7.516;2024-01-16T04:55:10;13.53;;;10.70;;
4529;SDS011;2277;51.626;7.516;2024-01-16T04:57:36;16.50;;;9.73;;
4529;SDS011;2277;51.626;7.516;2024-01-16T05:00:02;17.77;;;10.70;;
4529;SDS011;2277;51.626;7.516;2024-01-16T05:02:32;13.87;;;9.90;;
4529;SDS011;2277;51.626;7.516;2024-01-16T05:05:01;14.63;;;9.30;;
4529;SDS011;2277;51.626;7.516;2024-01-16T05:07:26;15.83;;;10.17;;
4529;SDS011;2277;51.626;7.516;2024-01-16T05:09:52;12.13;;;7.77;;
4529;SDS011;2277;51.626;7.516;2024-01-16T05:12:18;14.90;;;8.27;;
4529;SDS011;2277;51.626;7.516;2024-01-16T05:14:44;13.87;;;9.47;;
4529;SDS011;2277;51.626;7.516;2024-01-16T05:17:10;22.17;;;12.47;;
4529;SDS011;2277;51.626;7.516;2024-01-16T05:19:38;22.23;;;11.10;;
4529;SDS011;2277;51.626;7.516;2024-01-16T05:22:04;16.17;;;9.43;;
4529;SDS011;2277;51.626;7.516;2024-01-16T05:24:29;17.50;;;12.50;;
4529;SDS011;2277;51.626;7.516;2024-01-16T05:26:55;17.27;;;10.67;;
4529;SDS011;2277;51.626;7.516;2024-01-16T05:29:20;15.57;;;10.03;;
4529;SDS011;2277;51.626;7.516;2024-01-16T05:31:46;14.13;;;10.20;;
4529;SDS011;2277;51.626;7.516;2024-01-16T05:34:11;16.90;;;9.50;;
4529;SDS011;2277;51.626;7.516;2024-01-16T05:36:37;17.60;;;9.70;;
4529;SDS011;2277;51.626;7.516;2024-01-16T05:39:03;13.10;;;8.13;;
4529;SDS011;2277;51.626;7.516;2024-01-16T05:41:32;15.00;;;8.53;;
4529;SDS011;2277;51.626;7.516;2024-01-16T05:43:58;13.70;;;9.90;;
4529;SDS011;2277;51.626;7.516;2024-01-16T05:46:24;10.33;;;8.00;;
4529;SDS011;2277;51.626;7.516;2024-01-16T05:48:50;17.83;;;10.00;;
4529;SDS011;2277;51.626;7.516;2024-01-16T05:51:15;15.23;;;9.30;;
4529;SDS011;2277;51.626;7.516;2024-01-16T05:53:41;12.13;;;8.30;;
4529;SDS011;2277;51.626;7.516;2024-01-16T05:56:07;12.17;;;7.30;;
4529;SDS011;2277;51.626;7.516;2024-01-16T05:58:33;19.20;;;12.73;;
4529;SDS011;2277;51.626;7.516;2024-01-16T06:01:03;11.03;;;7.37;;
4529;SDS011;2277;51.626;7.516;2024-01-16T06:03:32;10.50;;;8.77;;
4529;SDS011;2277;51.626;7.516;2024-01-16T06:05:57;9.27;;;7.93;;
4529;SDS011;2277;51.626;7.516;2024-01-16T06:08:23;9.63;;;8.17;;
4529;SDS011;2277;51.626;7.516;2024-01-16T06:10:49;8.37;;;6.43;;
4529;SDS011;2277;51.626;7.516;2024-01-16T06:13:16;16.47;;;8.23;;
4529;SDS011;2277;51.626;7.516;2024-01-16T06:15:43;11.20;;;7.17;;
4529;SDS011;2277;51.626;7.516;2024-01-16T06:18:09;12.30;;;7.60;;
4529;SDS011;2277;51.626;7.516;2024-01-16T06:20:35;7.80;;;7.03;;
4529;SDS011;2277;51.626;7.516;2024-01-16T06:23:00;15.90;;;10.27;;
4529;SDS011;2277;51.626;7.516;2024-01-16T06:25:26;13.83;;;9.00;;
4529;SDS011;2277;51.626;7.516;2024-01-16T06:27:51;11.57;;;6.90;;
4529;SDS011;2277;51.626;7.516;2024-01-16T06:30:17;12.53;;;8.50;;
4529;SDS011;2277;51.626;7.516;2024-01-16T06:32:43;13.40;;;9.57;;
4529;SDS011;2277;51.626;7.516;2024-01-16T06:35:08;13.70;;;10.70;;
4529;SDS011;2277;51.626;7.516;2024-01-16T06:37:34;8.27;;;6.97;;
4529;SDS011;2277;51.626;7.516;2024-01-16T06:40:01;11.23;;;9.80;;
4529;SDS011;2277;51.626;7.516;2024-01-16T06:42:27;9.23;;;6.10;;
4529;SDS011;2277;51.626;7.516;2024-01-16T06:44:53;8.57;;;6.97;;
4529;SDS011;2277;51.626;7.516;2024-01-16T06:47:18;13.10;;;6.27;;
4529;SDS011;2277;51.626;7.516;2024-01-16T06:49:44;9.03;;;7.70;;
4529;SDS011;2277;51.626;7.516;2024-01-16T06:52:10;13.07;;;7.60;;
4529;SDS011;2277;51.626;7.516;2024-01-16T06:54:35;19.97;;;8.20;;
4529;SDS011;2277;51.626;7.516;2024-01-16T06:57:01;11.53;;;7.20;;
4529;SDS011;2277;51.626;7.516;2024-01-16T06:59:26;10.70;;;8.10;;
4529;SDS011;2277;51.626;7.516;2024-01-16T07:01:52;10.00;;;5.23;;
4529;SDS011;2277;51.626;7.516;2024-01-16T07:04:19;13.23;;;8.43;;
4529;SDS011;2277;51.626;7.516;2024-01-16T07:06:45;16.70;;;10.23;;
4529;SDS011;2277;51.626;7.516;2024-01-16T07:09:11;16.70;;;8.47;;
4529;SDS011;2277;51.626;7.516;2024-01-16T07:11:37;18.20;;;8.90;;
4529;SDS011;2277;51.626;7.516;2024-01-16T07:14:03;16.93;;;8.10;;
4529;SDS011;2277;51.626;7.516;2024-01-16T07:16:29;11.53;;;7.17;;
4529;SDS011;2277;51.626;7.516;2024-01-16T07:18:54;12.07;;;9.63;;
4529;SDS011;2277;51.626;7.516;2024-01-16T07:21:20;13.17;;;10.20;;
4529;SDS011;2277;51.626;7.516;2024-01-16T07:23:46;12.93;;;8.47;;
4529;SDS011;2277;51.626;7.516;2024-01-16T07:26:12;11.30;;;9.73;;
4529;SDS011;2277;51.626;7.516;2024-01-16T07:28:38;14.17;;;8.30;;
4529;SDS011;2277;51.626;7.516;2024-01-16T07:31:03;19.33;;;9.50;;
4529;SDS011;2277;51.626;7.516;2024-01-16T07:33:30;15.00;;;8.63;;
4529;SDS011;2277;51.626;7.516;2024-01-16T07:35:56;11.97;;;7.87;;
4529;SDS011;2277;51.626;7.516;2024-01-16T07:38:21;11.40;;;9.93;;
4529;SDS011;2277;51.626;7.516;2024-01-16T07:40:47;12.07;;;7.93;;
4529;SDS011;2277;51.626;7.516;2024-01-16T07:43:17;12.13;;;9.30;;
4529;SDS011;2277;51.626;7.516;2024-01-16T07:45:42;13.23;;;8.70;;
4529;SDS011;2277;51.626;7.516;2024-01-16T07:48:08;14.20;;;9.00;;
4529;SDS011;2277;51.626;7.516;2024-01-16T07:50:34;16.43;;;8.87;;
4529;SDS011;2277;51.626;7.516;2024-01-16T07:52:59;14.50;;;10.77;;
4529;SDS011;2277;51.626;7.516;2024-01-16T07:55:25;16.17;;;9.70;;
4529;SDS011;2277;51.626;7.516;2024-01-16T07:57:51;14.70;;;9.30;;
4529;SDS011;2277;51.626;7.516;2024-01-16T08:00:19;19.33;;;13.00;;
4529;SDS011;2277;51.626;7.516;2024-01-16T08:02:44;30.47;;;18.00;;
4529;SDS011;2277;51.626;7.516;2024-01-16T08:05:10;23.97;;;12.40;;
4529;SDS011;2277;51.626;7.516;2024-01-16T08:07:35;17.27;;;11.00;;
4529;SDS011;2277;51.626;7.516;2024-01-16T08:10:02;15.27;;;9.37;;
4529;SDS011;2277;51.626;7.516;2024-01-16T08:12:27;15.83;;;11.27;;
4529;SDS011;2277;51.626;7.516;2024-01-16T08:14:53;19.40;;;12.43;;
4529;SDS011;2277;51.626;7.516;2024-01-16T08:17:18;20.30;;;10.13;;
4529;SDS011;2277;51.626;7.516;2024-01-16T08:19:44;19.17;;;10.93;;
4529;SDS011;2277;51.626;7.516;2024-01-16T08:22:10;18.93;;;11.77;;
4529;SDS011;2277;51.626;7.516;2024-01-16T08:24:35;18.17;;;11.50;;
4529;SDS011;2277;51.626;7.516;2024-01-16T08:27:01;18.70;;;13.80;;
4529;SDS011;2277;51.626;7.516;2024-01-16T08:29:28;18.80;;;13.93;;
4529;SDS011;2277;51.626;7.516;2024-01-16T08:31:53;23.30;;;12.47;;
4529;SDS011;2277;51.626;7.516;2024-01-16T08:34:19;20.70;;;13.03;;
4529;SDS011;2277;51.626;7.516;2024-01-16T08:36:45;13.37;;;9.97;;
4529;SDS011;2277;51.626;7.516;2024-01-16T08:39:11;11.00;;;9.33;;
4529;SDS011;2277;51.626;7.516;2024-01-16T08:41:36;14.67;;;9.87;;
4529;SDS011;2277;51.626;7.516;2024-01-16T08:44:02;16.00;;;8.30;;
4529;SDS011;2277;51.626;7.516;2024-01-16T08:46:28;11.13;;;8.00;;
4529;SDS011;2277;51.626;7.516;2024-01-16T08:48:53;11.47;;;8.70;;
4529;SDS011;2277;51.626;7.516;2024-01-16T08:51:19;11.60;;;8.30;;
4529;SDS011;2277;51.626;7.516;2024-01-16T08:53:45;9.83;;;7.13;;
4529;SDS011;2277;51.626;7.516;2024-01-16T08:56:11;9.70;;;6.00;;
4529;SDS011;2277;51.626;7.516;2024-01-16T08:58:37;9.33;;;7.37;;
4529;SDS011;2277;51.626;7.516;2024-01-16T09:01:03;8.87;;;7.50;;
4529;SDS011;2277;51.626;7.516;2024-01-16T09:03:33;10.60;;;6.27;;
4529;SDS011;2277;51.626;7.516;2024-01-16T09:05:59;9.77;;;5.77;;
4529;SDS011;2277;51.626;7.516;2024-01-16T09:08:25;8.77;;;6.90;;
4529;SDS011;2277;51.626;7.516;2024-01-16T09:10:52;15.00;;;7.13;;
4529;SDS011;2277;51.626;7.516;2024-01-16T09:13:18;10.23;;;7.20;;
4529;SDS011;2277;51.626;7.516;2024-01-16T09:15:45;5.97;;;4.97;;
4529;SDS011;2277;51.626;7.516;2024-01-16T09:18:11;8.67;;;6.87;;
4529;SDS011;2277;51.626;7.516;2024-01-16T09:20:37;7.83;;;4.60;;
4529;SDS011;2277;51.626;7.516;2024-01-16T09:23:03;6.60;;;4.47;;
4529;SDS011;2277;51.626;7.516;2024-01-16T09:25:28;5.77;;;5.27;;
4529;SDS011;2277;51.626;7.516;2024-01-16T09:27:54;9.23;;;7.23;;
4529;SDS011;2277;51.626;7.516;2024-01-16T09:30:20;6.00;;;4.17;;
4529;SDS011;2277;51.626;7.516;2024-01-16T09:32:47;5.03;;;4.50;;
4529;SDS011;2277;51.626;7.516;2024-01-16T09:35:13;8.50;;;3.73;;
4529;SDS011;2277;51.626;7.516;2024-01-16T09:37:39;8.80;;;4.10;;
4529;SDS011;2277;51.626;7.516;2024-01-16T09:40:05;12.13;;;6.63;;
4529;SDS011;2277;51.626;7.516;2024-01-16T09:42:32;8.93;;;4.30;;
4529;SDS011;2277;51.626;7.516;2024-01-16T09:44:58;6.73;;;3.63;;
4529;SDS011;2277;51.626;7.516;2024-01-16T09:47:27;10.33;;;5.23;;
4529;SDS011;2277;51.626;7.516;2024-01-16T09:49:56;13.30;;;3.20;;
4529;SDS011;2277;51.626;7.516;2024-01-16T09:52:24;3.83;;;3.50;;
4529;SDS011;2277;51.626;7.516;2024-01-16T09:54:50;4.87;;;2.83;;
4529;SDS011;2277;51.626;7.516;2024-01-16T09:57:15;4.73;;;3.40;;
4529;SDS011;2277;51.626;7.516;2024-01-16T09:59:47;7.67;;;3.57;;
4529;SDS011;2277;51.626;7.516;2024-01-16T10:02:13;5.10;;;3.63;;
4529;SDS011;2277;51.626;7.516;2024-01-16T10:04:41;6.13;;;3.70;;
4529;SDS011;2277;51.626;7.516;2024-01-16T10:07:06;8.80;;;3.90;;
4529;SDS011;2277;51.626;7.516;2024-01-16T10:09:34;3.23;;;3.03;;
4529;SDS011;2277;51.626;7.516;2024-01-16T10:12:00;5.37;;;3.50;;
4529;SDS011;2277;51.626;7.516;2024-01-16T10:14:26;4.97;;;2.70;;
4529;SDS011;2277;51.626;7.516;2024-01-16T10:17:02;5.40;;;3.47;;
4529;SDS011;2277;51.626;7.516;2024-01-16T10:19:34;10.30;;;5.07;;
4529;SDS011;2277;51.626;7.516;2024-01-16T10:22:04;9.70;;;4.83;;
4529;SDS011;2277;51.626;7.516;2024-01-16T10:24:31;5.20;;;4.10;;
4529;SDS011;2277;51.626;7.516;2024-01-16T10:27:00;4.07;;;3.70;;
4529;SDS011;2277;51.626;7.516;2024-01-16T10:29:28;6.27;;;4.00;;
4529;SDS011;2277;51.626;7.516;2024-01-16T10:31:56;5.33;;;3.70;;
4529;SDS011;2277;51.626;7.516;2024-01-16T10:34:22;4.63;;;3.80;;
4529;SDS011;2277;51.626;7.516;2024-01-16T10:36:52;3.70;;;3.40;;
4529;SDS011;2277;51.626;7.516;2024-01-16T10:39:23;2.90;;;2.70;;
4529;SDS011;2277;51.626;7.516;2024-01-16T10:41:58;4.73;;;4.33;;
4529;SDS011;2277;51.626;7.516;2024-01-16T10:44:24;4.97;;;4.57;;
4529;SDS011;2277;51.626;7.516;2024-01-16T10:46:50;8.93;;;4.07;;
4529;SDS011;2277;51.626;7.516;2024-01-16T10:49:15;4.40;;;3.90;;
4529;SDS011;2277;51.626;7.516;2024-01-16T10:51:44;3.80;;;2.73;;
4529;SDS011;2277;51.626;7.516;2024-01-16T10:54:12;4.17;;;2.90;;
4529;SDS011;2277;51.626;7.516;2024-01-16T10:56:42;7.60;;;3.33;;
4529;SDS011;2277;51.626;7.516;2024-01-16T10:59:30;3.63;;;2.20;;
4529;SDS011;2277;51.626;7.516;2024-01-16T11:02:04;5.90;;;3.30;;
4529;SDS011;2277;51.626;7.516;2024-01-16T11:04:35;5.10;;;4.23;;
4529;SDS011;2277;51.626;7.516;2024-01-16T11:07:02;4.00;;;3.23;;
4529;SDS011;2277;51.626;7.516;2024-01-16T11:09:29;4.57;;;3.00;;
4529;SDS011;2277;51.626;7.516;2024-01-16T11:11:56;5.50;;;2.90;;
4529;SDS011;2277;51.626;7.516;2024-01-16T11:14:22;3.97;;;3.60;;
4529;SDS011;2277;51.626;7.516;2024-01-16T11:16:50;5.43;;;3.30;;
4529;SDS011;2277;51.626;7.516;2024-01-16T11:19:17;5.87;;;3.30;;
4529;SDS011;2277;51.626;7.516;2024-01-16T11:21:44;4.20;;;3.07;;
4529;SDS011;2277;51.626;7.516;2024-01-16T11:24:10;4.40;;;4.00;;
4529;SDS011;2277;51.626;7.516;2024-01-16T11:26:39;4.00;;;2.80;;
4529;SDS011;2277;51.626;7.516;2024-01-16T11:31:53;10.83;;;4.03;;
4529;SDS011;2277;51.626;7.516;2024-01-16T11:37:07;21.23;;;5.23;;
4529;SDS011;2277;51.626;7.516;2024-01-16T11:39:33;5.67;;;4.10;;
4529;SDS011;2277;51.626;7.516;2024-01-16T11:42:00;7.67;;;3.00;;
4529;SDS011;2277;51.626;7.516;2024-01-16T11:47:21;6.07;;;3.90;;
4529;SDS011;2277;51.626;7.516;2024-01-16T11:49:50;5.70;;;5.00;;
4529;SDS011;2277;51.626;7.516;2024-01-16T12:00:31;11.50;;;6.20;;
4529;SDS011;2277;51.626;7.516;2024-01-16T12:03:01;7.83;;;6.37;;
4529;SDS011;2277;51.626;7.516;2024-01-16T12:05:30;7.10;;;4.00;;
4529;SDS011;2277;51.626;7.516;2024-01-16T12:07:57;3.60;;;2.80;;
4529;SDS011;2277;51.626;7.516;2024-01-16T12:10:23;8.77;;;3.40;;
4529;SDS011;2277;51.626;7.516;2024-01-16T12:12:50;3.53;;;2.90;;
4529;SDS011;2277;51.626;7.516;2024-01-16T12:15:17;3.63;;;2.80;;
4529;SDS011;2277;51.626;7.516;2024-01-16T12:17:59;3.53;;;2.87;;
4529;SDS011;2277;51.626;7.516;2024-01-16T12:20:26;8.10;;;3.07;;
4529;SDS011;2277;51.626;7.516;2024-01-16T12:22:54;6.20;;;3.50;;
4529;SDS011;2277;51.626;7.516;2024-01-16T12:25:20;6.47;;;3.50;;
4529;SDS011;2277;51.626;7.516;2024-01-16T12:27:58;4.73;;;3.50;;
4529;SDS011;2277;51.626;7.516;2024-01-16T12:30:34;3.10;;;2.80;;
4529;SDS011;2277;51.626;7.516;2024-01-16T12:35:36;8.50;;;4.67;;
4529;SDS011;2277;51.626;7.516;2024-01-16T12:38:04;6.03;;;4.10;;
4529;SDS011;2277;51.626;7.516;2024-01-16T12:40:31;9.03;;;5.53;;
4529;SDS011;2277;51.626;7.516;2024-01-16T12:42:58;9.43;;;5.10;;
4529;SDS011;2277;51.626;7.516;2024-01-16T12:45:24;6.73;;;4.20;;
4529;SDS011;2277;51.626;7.516;2024-01-16T12:47:53;7.60;;;4.23;;
4529;SDS011;2277;51.626;7.516;2024-01-16T12:50:22;4.47;;;2.50;;
4529;SDS011;2277;51.626;7.516;2024-01-16T12:52:49;6.40;;;2.80;;
4529;SDS011;2277;51.626;7.516;2024-01-16T12:55:15;4.37;;;3.13;;
4529;SDS011;2277;51.626;7.516;2024-01-16T12:57:42;7.00;;;3.63;;
4529;SDS011;2277;51.626;7.516;2024-01-16T13:00:24;6.27;;;3.03;;
4529;SDS011;2277;51.626;7.516;2024-01-16T13:02:53;4.90;;;3.20;;
4529;SDS011;2277;51.626;7.516;2024-01-16T13:05:22;3.50;;;2.23;;
4529;SDS011;2277;51.626;7.516;2024-01-16T13:07:59;4.60;;;2.80;;
4529;SDS011;2277;51.626;7.516;2024-01-16T13:10:30;6.87;;;4.37;;
4529;SDS011;2277;51.626;7.516;2024-01-16T13:13:15;4.60;;;2.97;;
4529;SDS011;2277;51.626;7.516;2024-01-16T13:15:42;5.00;;;3.37;;
4529;SDS011;2277;51.626;7.516;2024-01-16T13:18:20;6.77;;;3.83;;
4529;SDS011;2277;51.626;7.516;2024-01-16T13:20:51;10.03;;;3.60;;
4529;SDS011;2277;51.626;7.516;2024-01-16T13:23:17;4.47;;;3.20;;
4529;SDS011;2277;51.626;7.516;2024-01-16T13:25:43;5.37;;;3.03;;
4529;SDS011;2277;51.626;7.516;2024-01-16T13:28:13;7.00;;;5.37;;
4529;SDS011;2277;51.626;7.516;2024-01-16T13:30:43;5.63;;;4.13;;
4529;SDS011;2277;51.626;7.516;2024-01-16T13:33:09;4.33;;;3.93;;
4529;SDS011;2277;51.626;7.516;2024-01-16T13:35:37;12.50;;;7.70;;
4529;SDS011;2277;51.626;7.516;2024-01-16T13:38:04;5.77;;;3.10;;
4529;SDS011;2277;51.626;7.516;2024-01-16T13:40:31;6.83;;;3.13;;
4529;SDS011;2277;51.626;7.516;2024-01-16T13:42:57;4.30;;;2.80;;
4529;SDS011;2277;51.626;7.516;2024-01-16T13:45:23;2.83;;;2.20;;
4529;SDS011;2277;51.626;7.516;2024-01-16T13:47:49;4.33;;;3.27;;
4529;SDS011;2277;51.626;7.516;2024-01-16T13:50:15;3.80;;;3.50;;
4529;SDS011;2277;51.626;7.516;2024-01-16T13:52:42;6.57;;;3.23;;
4529;SDS011;2277;51.626;7.516;2024-01-16T13:55:08;7.10;;;3.70;;
4529;SDS011;2277;51.626;7.516;2024-01-16T13:57:34;3.43;;;3.13;;
4529;SDS011;2277;51.626;7.516;2024-01-16T14:00:04;6.33;;;3.70;;
4529;SDS011;2277;51.626;7.516;2024-01-16T14:02:47;5.10;;;3.53;;
4529;SDS011;2277;51.626;7.516;2024-01-16T14:05:14;3.90;;;3.40;;
4529;SDS011;2277;51.626;7.516;2024-01-16T14:07:41;13.83;;;4.50;;
4529;SDS011;2277;51.626;7.516;2024-01-16T14:10:10;7.50;;;3.77;;
4529;SDS011;2277;51.626;7.516;2024-01-16T14:12:37;5.63;;;5.13;;
4529;SDS011;2277;51.626;7.516;2024-01-16T14:15:03;4.13;;;3.83;;
4529;SDS011;2277;51.626;7.516;2024-01-16T14:17:32;7.33;;;3.80;;
4529;SDS011;2277;51.626;7.516;2024-01-16T14:19:58;3.97;;;3.53;;
4529;SDS011;2277;51.626;7.516;2024-01-16T14:22:24;5.93;;;3.93;;
4529;SDS011;2277;51.626;7.516;2024-01-16T14:24:51;16.07;;;8.27;;
4529;SDS011;2277;51.626;7.516;2024-01-16T14:27:17;4.87;;;3.43;;
4529;SDS011;2277;51.626;7.516;2024-01-16T14:29:43;7.33;;;4.10;;
4529;SDS011;2277;51.626;7.516;2024-01-16T14:32:08;8.83;;;4.30;;
4529;SDS011;2277;51.626;7.516;2024-01-16T14:34:34;6.67;;;5.20;;
4529;SDS011;2277;51.626;7.516;2024-01-16T14:37:00;7.83;;;4.10;;
4529;SDS011;2277;51.626;7.516;2024-01-16T14:39:26;5.50;;;4.93;;
4529;SDS011;2277;51.626;7.516;2024-01-16T14:41:55;7.23;;;3.97;;
4529;SDS011;2277;51.626;7.516;2024-01-16T14:44:23;8.37;;;4.53;;
4529;SDS011;2277;51.626;7.516;2024-01-16T14:46:48;6.30;;;4.63;;
4529;SDS011;2277;51.626;7.516;2024-01-16T14:49:14;6.67;;;4.20;;
4529;SDS011;2277;51.626;7.516;2024-01-16T14:51:40;4.73;;;4.13;;
4529;SDS011;2277;51.626;7.516;2024-01-16T14:54:05;6.03;;;3.67;;
4529;SDS011;2277;51.626;7.516;2024-01-16T14:56:31;7.07;;;5.33;;
4529;SDS011;2277;51.626;7.516;2024-01-16T14:58:57;9.10;;;5.97;;
4529;SDS011;2277;51.626;7.516;2024-01-16T15:01:23;4.43;;;3.80;;
4529;SDS011;2277;51.626;7.516;2024-01-16T15:03:48;12.63;;;5.33;;
4529;SDS011;2277;51.626;7.516;2024-01-16T15:06:14;3.80;;;3.50;;
4529;SDS011;2277;51.626;7.516;2024-01-16T15:08:42;5.80;;;4.20;;
4529;SDS011;2277;51.626;7.516;2024-01-16T15:11:08;4.90;;;3.93;;
4529;SDS011;2277;51.626;7.516;2024-01-16T15:13:33;4.97;;;4.47;;
4529;SDS011;2277;51.626;7.516;2024-01-16T15:15:59;6.27;;;4.30;;
4529;SDS011;2277;51.626;7.516;2024-01-16T15:18:25;5.23;;;4.20;;
4529;SDS011;2277;51.626;7.516;2024-01-16T15:20:51;6.40;;;4.57;;
4529;SDS011;2277;51.626;7.516;2024-01-16T15:23:16;5.43;;;4.70;;